createdAt,value
2023-03-31T00:00:54.194Z,10.68
2023-03-31T00:03:24.853Z,10.59
2023-03-31T00:05:58.261Z,10.63
2023-03-31T00:08:29.864Z,10.58
2023-03-31T00:11:00.812Z,10.61
2023-03-31T00:13:29.138Z,10.62
2023-03-31T00:15:58.198Z,10.59
2023-03-31T00:18:26.229Z,10.64
2023-03-31T00:20:54.559Z,10.59
2023-03-31T00:23:27.726Z,10.58
2023-03-31T00:25:55.870Z,10.60
2023-03-31T00:28:23.024Z,10.61
2023-03-31T00:30:50.593Z,10.58
2023-03-31T00:33:17.699Z,10.60
2023-03-31T00:35:45.954Z,10.60
2023-03-31T00:38:13.999Z,10.61
2023-03-31T00:40:51.865Z,10.54
2023-03-31T00:43:31.134Z,10.54
2023-03-31T00:46:04.601Z,10.58
2023-03-31T00:48:32.365Z,10.54
2023-03-31T00:51:03.449Z,10.58
2023-03-31T00:53:34.380Z,10.51
2023-03-31T00:56:13.255Z,10.56
2023-03-31T00:58:45.843Z,10.54
2023-03-31T01:01:20.547Z,10.50
2023-03-31T01:03:48.121Z,10.54
2023-03-31T01:06:19.720Z,10.47
2023-03-31T01:08:49.987Z,10.55
2023-03-31T01:11:20.269Z,10.55
2023-03-31T01:13:50.886Z,10.56
2023-03-31T01:16:18.671Z,10.59
2023-03-31T01:18:49.516Z,10.59
2023-03-31T01:21:39.464Z,10.64
2023-03-31T01:24:47.242Z,10.70
2023-03-31T01:27:33.439Z,10.70
2023-03-31T01:30:10.372Z,10.73
2023-03-31T01:32:43.245Z,10.76
2023-03-31T01:35:35.885Z,10.61
2023-03-31T01:38:24.631Z,10.70
2023-03-31T01:41:04.040Z,10.66
2023-03-31T01:43:57.282Z,10.68
2023-03-31T01:47:10.506Z,10.70
2023-03-31T01:50:00.677Z,10.76
2023-03-31T01:53:08.152Z,10.68
2023-03-31T01:55:48.222Z,10.71
2023-03-31T01:58:18.083Z,10.64
2023-03-31T02:01:01.816Z,10.65
2023-03-31T02:03:35.000Z,10.63
2023-03-31T02:06:12.240Z,10.62
2023-03-31T02:08:45.772Z,10.57
2023-03-31T02:11:13.859Z,10.65
2023-03-31T02:13:45.225Z,10.65
2023-03-31T02:16:20.700Z,10.65
2023-03-31T02:18:50.050Z,10.70
2023-03-31T02:21:17.610Z,10.75
2023-03-31T02:23:45.807Z,10.70
2023-03-31T02:26:31.113Z,10.71
2023-03-31T02:28:58.817Z,10.83
2023-03-31T02:31:49.695Z,10.87
2023-03-31T02:34:16.868Z,10.91
2023-03-31T02:36:45.772Z,10.84
2023-03-31T02:39:17.815Z,10.81
2023-03-31T02:41:45.141Z,10.82
2023-03-31T02:44:12.346Z,10.91
2023-03-31T02:46:41.336Z,10.99
2023-03-31T02:49:11.387Z,10.92
2023-03-31T02:51:38.376Z,11.02
2023-03-31T02:54:23.874Z,11.04
2023-03-31T02:57:09.639Z,11.04
2023-03-31T02:59:49.647Z,10.99
2023-03-31T03:02:31.888Z,11.00
2023-03-31T03:05:20.131Z,10.94
2023-03-31T03:08:07.797Z,10.95
2023-03-31T03:10:44.073Z,10.85
2023-03-31T03:13:28.479Z,10.81
2023-03-31T03:16:19.755Z,10.84
2023-03-31T03:18:59.701Z,10.87
2023-03-31T03:21:27.642Z,10.92
2023-03-31T03:23:54.971Z,10.84
2023-03-31T03:26:23.850Z,10.88
2023-03-31T03:28:51.592Z,10.90
2023-03-31T03:31:19.477Z,10.84
2023-03-31T03:33:46.817Z,10.82
2023-03-31T03:36:14.039Z,10.82
2023-03-31T03:38:41.224Z,10.88
2023-03-31T03:41:09.257Z,10.83
2023-03-31T03:43:36.291Z,10.73
2023-03-31T03:46:03.551Z,10.58
2023-03-31T03:48:30.737Z,10.57
2023-03-31T03:51:00.427Z,10.63
2023-03-31T03:53:27.584Z,10.58
2023-03-31T03:55:54.656Z,10.33
2023-03-31T03:58:21.778Z,10.27
2023-03-31T04:00:49.275Z,10.18
2023-03-31T04:03:16.702Z,10.13
2023-03-31T04:05:44.232Z,10.18
2023-03-31T04:08:11.285Z,10.13
2023-03-31T04:10:38.793Z,10.09
2023-03-31T04:13:06.743Z,10.07
2023-03-31T04:15:33.850Z,10.15
2023-03-31T04:18:00.849Z,10.10
2023-03-31T04:20:30.543Z,10.10
2023-03-31T04:22:57.634Z,10.11
2023-03-31T04:25:24.757Z,10.13
2023-03-31T04:27:58.519Z,10.13
2023-03-31T04:30:30.831Z,10.14
2023-03-31T04:33:01.660Z,10.00
2023-03-31T04:35:49.308Z,9.94
2023-03-31T04:38:21.982Z,10.07
2023-03-31T04:40:51.164Z,10.06
2023-03-31T04:43:20.680Z,10.07
2023-03-31T04:45:47.856Z,10.04
2023-03-31T04:48:14.915Z,10.01
2023-03-31T04:50:41.966Z,9.98
2023-03-31T04:53:09.089Z,9.97
2023-03-31T04:55:36.372Z,9.94
2023-03-31T04:58:03.515Z,9.90
2023-03-31T05:00:30.874Z,9.92
2023-03-31T05:03:00.018Z,9.92
2023-03-31T05:05:27.740Z,9.95
2023-03-31T05:07:54.734Z,10.05
2023-03-31T05:10:21.937Z,10.10
2023-03-31T05:12:49.353Z,10.14
2023-03-31T05:15:16.819Z,10.14
2023-03-31T05:17:44.900Z,10.17
2023-03-31T05:20:13.731Z,10.17
2023-03-31T05:22:43.803Z,10.20
2023-03-31T05:25:14.576Z,10.18
2023-03-31T05:27:41.649Z,10.21
2023-03-31T05:30:09.585Z,10.21
2023-03-31T05:32:36.696Z,10.20
2023-03-31T05:35:04.101Z,10.10
2023-03-31T05:37:31.577Z,10.19
2023-03-31T05:39:58.990Z,10.20
2023-03-31T05:42:26.046Z,10.38
2023-03-31T05:44:53.220Z,10.48
2023-03-31T05:47:20.336Z,10.52
2023-03-31T05:49:47.394Z,10.48
2023-03-31T05:52:14.487Z,10.52
2023-03-31T05:54:43.060Z,10.53
2023-03-31T05:57:10.643Z,10.62
2023-03-31T05:59:39.116Z,10.61
2023-03-31T06:02:06.613Z,10.61
2023-03-31T06:04:33.732Z,10.64
2023-03-31T06:07:00.877Z,10.65
2023-03-31T06:09:28.478Z,10.72
2023-03-31T06:11:55.976Z,10.77
2023-03-31T06:14:23.360Z,10.76
2023-03-31T06:16:50.570Z,10.77
2023-03-31T06:19:17.763Z,10.81
2023-03-31T06:21:44.863Z,10.80
2023-03-31T06:24:12.095Z,10.85
2023-03-31T06:26:40.391Z,10.87
2023-03-31T06:29:07.508Z,10.87
2023-03-31T06:31:34.773Z,10.88
2023-03-31T06:34:01.874Z,10.84
2023-03-31T06:36:28.899Z,10.92
2023-03-31T06:38:55.961Z,10.93
2023-03-31T06:41:23.216Z,10.92
2023-03-31T06:43:50.501Z,10.98
2023-03-31T06:46:17.825Z,10.96
2023-03-31T06:48:44.973Z,10.97
2023-03-31T06:51:13.008Z,10.98
2023-03-31T06:53:40.736Z,11.02
2023-03-31T06:56:08.092Z,11.01
2023-03-31T06:58:36.379Z,10.96
2023-03-31T07:01:06.090Z,10.98
2023-03-31T07:03:33.916Z,10.98
2023-03-31T07:06:01.150Z,10.85
2023-03-31T07:08:28.331Z,10.91
2023-03-31T07:10:58.195Z,10.80
2023-03-31T07:13:26.189Z,10.92
2023-03-31T07:15:53.946Z,10.87
2023-03-31T07:18:21.679Z,10.77
2023-03-31T07:20:50.568Z,10.72
2023-03-31T07:23:18.335Z,10.71
2023-03-31T07:25:46.958Z,10.66
2023-03-31T07:28:14.597Z,10.67
2023-03-31T07:30:41.872Z,10.67
2023-03-31T07:33:09.624Z,10.67
2023-03-31T07:35:41.606Z,10.71
2023-03-31T07:38:12.396Z,10.79
2023-03-31T07:40:40.727Z,10.78
2023-03-31T07:43:07.930Z,10.71
2023-03-31T07:45:35.485Z,10.74
2023-03-31T07:48:02.943Z,10.67
2023-03-31T07:50:30.272Z,10.81
2023-03-31T07:52:57.658Z,10.84
2023-03-31T07:55:26.338Z,10.82
2023-03-31T07:57:53.518Z,10.79
2023-03-31T08:00:21.376Z,10.72
2023-03-31T08:02:48.991Z,10.77
2023-03-31T08:05:18.974Z,10.83
2023-03-31T08:07:48.324Z,10.76
2023-03-31T08:10:22.601Z,10.70
2023-03-31T08:12:49.667Z,10.64
2023-03-31T08:15:17.100Z,10.73
2023-03-31T08:17:44.406Z,10.77
2023-03-31T08:20:12.094Z,10.85
2023-03-31T08:22:40.841Z,10.95
2023-03-31T08:25:09.393Z,11.01
2023-03-31T08:27:42.491Z,11.08
2023-03-31T08:30:11.408Z,11.22
2023-03-31T08:32:38.802Z,11.30
2023-03-31T08:35:07.333Z,11.30
2023-03-31T08:37:34.742Z,11.29
2023-03-31T08:40:05.399Z,11.26
2023-03-31T08:42:53.481Z,11.33
2023-03-31T08:45:36.167Z,11.33
2023-03-31T08:48:11.322Z,11.31
2023-03-31T08:50:46.151Z,11.44
2023-03-31T08:53:21.950Z,11.31
2023-03-31T08:55:59.561Z,11.35
2023-03-31T08:58:43.572Z,11.32
2023-03-31T09:01:30.450Z,11.39
2023-03-31T09:04:33.296Z,11.51
2023-03-31T09:07:12.602Z,11.55
2023-03-31T09:10:13.285Z,11.61
2023-03-31T09:13:08.016Z,11.52
2023-03-31T09:16:22.621Z,11.65
2023-03-31T09:18:53.386Z,11.49
2023-03-31T09:21:32.481Z,11.62
2023-03-31T09:24:14.053Z,11.61
2023-03-31T09:26:53.228Z,11.64
2023-03-31T09:29:24.503Z,11.60
2023-03-31T09:31:51.655Z,11.70
2023-03-31T09:34:29.463Z,11.81
2023-03-31T09:36:56.966Z,11.83
2023-03-31T09:39:24.084Z,11.95
2023-03-31T09:41:53.924Z,11.98
2023-03-31T09:44:28.447Z,12.10
2023-03-31T09:46:56.856Z,12.19
2023-03-31T09:49:28.196Z,12.27
2023-03-31T09:52:02.571Z,12.25
2023-03-31T09:54:44.589Z,12.23
2023-03-31T09:57:24.088Z,12.20
2023-03-31T09:59:52.095Z,12.27
2023-03-31T10:02:35.585Z,12.43
2023-03-31T10:05:05.068Z,12.61
2023-03-31T10:07:32.944Z,12.55
2023-03-31T10:10:01.541Z,12.54
2023-03-31T10:12:30.078Z,12.77
2023-03-31T10:15:19.159Z,12.87
2023-03-31T10:17:54.778Z,12.84
2023-03-31T10:20:39.702Z,12.94
2023-03-31T10:23:17.599Z,12.98
2023-03-31T10:25:47.262Z,13.07
2023-03-31T10:28:19.835Z,13.00
2023-03-31T10:30:53.480Z,13.09
2023-03-31T10:33:25.164Z,13.19
2023-03-31T10:36:00.300Z,13.20
2023-03-31T10:38:34.481Z,13.42
2023-03-31T10:41:02.388Z,13.67
2023-03-31T10:43:53.471Z,13.74
2023-03-31T10:46:21.304Z,13.70
2023-03-31T10:48:48.441Z,13.70
2023-03-31T10:51:19.855Z,13.55
2023-03-31T10:53:46.984Z,13.56
2023-03-31T10:56:23.634Z,13.54
2023-03-31T10:59:06.628Z,13.55
2023-03-31T11:01:40.667Z,13.31
2023-03-31T11:04:44.793Z,13.27
2023-03-31T11:07:33.576Z,13.11
2023-03-31T11:10:15.471Z,13.13
2023-03-31T11:13:06.849Z,12.90
2023-03-31T11:15:40.533Z,12.82
2023-03-31T11:18:13.361Z,12.78
2023-03-31T11:20:46.064Z,12.65
2023-03-31T11:23:42.025Z,12.52
2023-03-31T11:26:26.058Z,12.49
2023-03-31T11:28:59.837Z,12.38
2023-03-31T11:32:09.623Z,12.41
2023-03-31T11:34:55.364Z,12.43
2023-03-31T11:37:49.592Z,12.40
2023-03-31T11:40:38.004Z,12.30
2023-03-31T11:43:28.111Z,12.34
2023-03-31T11:46:16.353Z,12.29
2023-03-31T11:48:46.024Z,12.43
2023-03-31T11:51:54.921Z,12.48
2023-03-31T11:54:31.412Z,12.51
2023-03-31T11:57:07.211Z,12.33
2023-03-31T11:59:34.749Z,12.37
2023-03-31T12:02:14.576Z,12.08
2023-03-31T12:04:48.796Z,11.93
2023-03-31T12:07:27.639Z,11.85
2023-03-31T12:10:30.303Z,11.75
2023-03-31T12:13:21.986Z,11.57
2023-03-31T12:16:11.801Z,11.43
2023-03-31T12:18:49.901Z,11.39
2023-03-31T12:21:17.585Z,11.37
2023-03-31T12:23:45.625Z,11.31
2023-03-31T12:26:12.803Z,11.34
2023-03-31T12:28:42.512Z,11.11
2023-03-31T12:31:17.583Z,11.20
2023-03-31T12:33:50.242Z,11.10
2023-03-31T12:36:38.081Z,11.10
2023-03-31T12:39:29.021Z,11.09
2023-03-31T12:42:41.319Z,11.03
2023-03-31T12:45:25.886Z,11.05
2023-03-31T12:48:11.095Z,11.00
2023-03-31T12:50:56.458Z,11.06
2023-03-31T12:54:00.873Z,11.19
2023-03-31T12:56:28.051Z,11.22
2023-03-31T12:58:55.650Z,11.14
2023-03-31T13:01:24.016Z,11.14
2023-03-31T13:04:21.418Z,11.28
2023-03-31T13:06:54.622Z,11.39
2023-03-31T13:09:33.684Z,11.55
2023-03-31T13:12:08.481Z,11.56
2023-03-31T13:14:43.066Z,11.65
2023-03-31T13:17:22.751Z,11.71
2023-03-31T13:19:51.176Z,11.71
2023-03-31T13:22:36.384Z,11.78
2023-03-31T13:25:26.369Z,11.72
2023-03-31T13:27:54.073Z,11.71
2023-03-31T13:30:36.613Z,11.68
2023-03-31T13:33:17.757Z,11.67
2023-03-31T13:35:48.492Z,11.57
2023-03-31T13:38:51.232Z,11.56
2023-03-31T13:41:33.734Z,11.48
2023-03-31T13:44:19.602Z,11.39
2023-03-31T13:46:53.604Z,11.36
2023-03-31T13:49:44.373Z,11.27
2023-03-31T13:52:13.144Z,11.32
2023-03-31T13:54:49.720Z,11.34
2023-03-31T13:57:38.925Z,11.36
2023-03-31T14:00:21.721Z,11.46
2023-03-31T14:03:06.686Z,11.66
2023-03-31T14:05:40.661Z,11.63
2023-03-31T14:08:24.560Z,11.80
2023-03-31T14:10:51.844Z,11.89
2023-03-31T14:13:24.539Z,11.90
2023-03-31T14:15:58.225Z,11.88
2023-03-31T14:18:29.780Z,11.82
2023-03-31T14:21:13.777Z,11.83
2023-03-31T14:23:53.809Z,11.71
2023-03-31T14:26:35.995Z,11.84
2023-03-31T14:29:18.200Z,11.96
2023-03-31T14:31:55.937Z,11.97
2023-03-31T14:34:34.859Z,12.05
2023-03-31T14:37:06.105Z,11.96
2023-03-31T14:39:36.518Z,11.86
2023-03-31T14:42:11.539Z,11.91
2023-03-31T14:44:40.489Z,11.97
2023-03-31T14:47:14.060Z,11.99
2023-03-31T14:49:41.214Z,12.07
2023-03-31T14:52:21.014Z,12.01
2023-03-31T14:54:48.163Z,11.94
2023-03-31T14:57:22.342Z,11.84
2023-03-31T14:59:52.509Z,11.66
2023-03-31T15:02:37.824Z,11.37
2023-03-31T15:05:10.050Z,11.35
2023-03-31T15:07:40.974Z,11.35
2023-03-31T15:10:08.538Z,11.23
2023-03-31T15:12:38.375Z,11.41
2023-03-31T15:15:06.946Z,11.57
2023-03-31T15:17:43.062Z,11.69
2023-03-31T15:20:35.639Z,11.76
2023-03-31T15:23:05.665Z,11.70
2023-03-31T15:25:36.410Z,11.61
2023-03-31T15:28:11.671Z,11.55
2023-03-31T15:30:39.539Z,11.58
2023-03-31T15:33:19.148Z,11.62
2023-03-31T15:35:47.356Z,11.53
2023-03-31T15:38:18.194Z,11.36
2023-03-31T15:40:52.646Z,11.34
2023-03-31T15:43:31.296Z,11.32
2023-03-31T15:46:02.554Z,11.19
2023-03-31T15:48:33.575Z,11.27
2023-03-31T15:51:25.752Z,11.29
2023-03-31T15:53:54.547Z,11.32
2023-03-31T15:56:46.594Z,11.28
2023-03-31T15:59:27.438Z,11.29
2023-03-31T16:02:00.127Z,11.36
2023-03-31T16:04:33.937Z,11.25
2023-03-31T16:07:16.730Z,11.17
2023-03-31T16:09:47.615Z,11.18
2023-03-31T16:12:35.364Z,11.19
2023-03-31T16:15:09.726Z,11.19
2023-03-31T16:17:43.133Z,11.05
2023-03-31T16:20:20.541Z,11.08
2023-03-31T16:22:51.970Z,11.05
2023-03-31T16:25:22.895Z,10.98
2023-03-31T16:27:56.268Z,11.00
2023-03-31T16:30:36.339Z,10.97
2023-03-31T16:33:03.339Z,11.07
2023-03-31T16:35:41.765Z,10.99
2023-03-31T16:38:13.728Z,10.98
2023-03-31T16:40:44.923Z,11.03
2023-03-31T16:43:20.318Z,10.92
2023-03-31T16:45:55.479Z,10.90
2023-03-31T16:48:24.863Z,10.83
2023-03-31T16:50:54.414Z,10.87
2023-03-31T16:53:27.902Z,10.73
2023-03-31T16:55:56.238Z,10.66
2023-03-31T16:58:25.036Z,10.64
2023-03-31T17:00:53.315Z,10.57
2023-03-31T17:03:20.604Z,10.63
2023-03-31T17:05:52.704Z,10.58
2023-03-31T17:08:22.079Z,10.55
2023-03-31T17:10:55.256Z,10.57
2023-03-31T17:13:22.325Z,10.55
2023-03-31T17:15:49.611Z,10.53
2023-03-31T17:18:17.934Z,10.48
2023-03-31T17:20:45.696Z,10.40
2023-03-31T17:23:13.068Z,10.43
2023-03-31T17:25:49.967Z,10.42
2023-03-31T17:28:17.128Z,10.39
2023-03-31T17:30:47.752Z,10.44
2023-03-31T17:33:16.127Z,10.39
2023-03-31T17:35:43.917Z,10.36
2023-03-31T17:38:14.251Z,10.42
2023-03-31T17:40:43.145Z,10.39
2023-03-31T17:43:11.172Z,10.42
2023-03-31T17:45:38.295Z,10.38
2023-03-31T17:48:06.597Z,10.39
2023-03-31T17:50:33.834Z,10.33
2023-03-31T17:53:01.629Z,10.37
2023-03-31T17:55:28.729Z,10.41
2023-03-31T17:57:56.381Z,10.42
2023-03-31T18:00:23.605Z,10.40
2023-03-31T18:02:51.348Z,10.35
2023-03-31T18:05:18.648Z,10.32
2023-03-31T18:07:45.762Z,10.36
2023-03-31T18:10:13.082Z,10.33
2023-03-31T18:12:41.100Z,10.30
2023-03-31T18:15:10.399Z,10.34
2023-03-31T18:17:37.475Z,10.29
2023-03-31T18:20:05.450Z,10.30
2023-03-31T18:22:32.614Z,10.26
2023-03-31T18:24:59.644Z,10.22
2023-03-31T18:27:27.282Z,10.27
2023-03-31T18:29:54.389Z,10.25
2023-03-31T18:32:21.436Z,10.29
2023-03-31T18:34:48.490Z,10.29
2023-03-31T18:37:15.572Z,10.27
2023-03-31T18:39:43.178Z,10.26
2023-03-31T18:42:10.899Z,10.25
2023-03-31T18:44:39.566Z,10.26
2023-03-31T18:47:07.162Z,10.30
2023-03-31T18:49:34.353Z,10.23
2023-03-31T18:52:04.006Z,10.27
2023-03-31T18:54:31.129Z,10.25
2023-03-31T18:56:58.214Z,10.26
2023-03-31T18:59:25.371Z,10.31
2023-03-31T19:01:53.772Z,10.33
2023-03-31T19:04:20.797Z,10.22
2023-03-31T19:06:47.879Z,10.27
2023-03-31T19:09:15.093Z,10.28
2023-03-31T19:11:42.473Z,10.29
2023-03-31T19:14:09.884Z,10.28
2023-03-31T19:16:42.753Z,10.31
2023-03-31T19:19:11.412Z,10.22
2023-03-31T19:21:40.020Z,10.21
2023-03-31T19:24:07.259Z,10.20
2023-03-31T19:26:34.429Z,10.26
2023-03-31T19:29:03.095Z,10.22
2023-03-31T19:31:33.117Z,10.21
2023-03-31T19:34:01.614Z,10.23
2023-03-31T19:36:28.738Z,10.19
2023-03-31T19:38:55.821Z,10.17
2023-03-31T19:41:22.905Z,10.21
2023-03-31T19:43:50.269Z,10.21
2023-03-31T19:46:18.436Z,10.24
2023-03-31T19:48:46.578Z,10.22
2023-03-31T19:51:14.137Z,10.18
2023-03-31T19:53:41.181Z,10.18
2023-03-31T19:56:11.092Z,10.19
2023-03-31T19:58:38.438Z,10.17
2023-03-31T20:01:08.341Z,10.17
2023-03-31T20:03:35.699Z,10.13
2023-03-31T20:06:11.688Z,10.16
2023-03-31T20:08:44.133Z,10.19
2023-03-31T20:11:14.220Z,10.20
2023-03-31T20:13:42.825Z,10.21
2023-03-31T20:16:14.079Z,10.21
2023-03-31T20:18:44.065Z,10.14
2023-03-31T20:21:14.569Z,10.13
2023-03-31T20:23:43.075Z,10.17
2023-03-31T20:26:17.510Z,10.14
2023-03-31T20:28:46.548Z,10.15
2023-03-31T20:31:19.807Z,10.14
2023-03-31T20:33:47.463Z,10.16
2023-03-31T20:36:19.743Z,10.16
2023-03-31T20:38:51.131Z,10.20
2023-03-31T20:41:24.340Z,10.17
2023-03-31T20:43:51.749Z,10.18
2023-03-31T20:46:18.971Z,10.14
2023-03-31T20:48:48.269Z,10.13
2023-03-31T20:51:20.757Z,10.16
2023-03-31T20:53:50.310Z,10.12
2023-03-31T20:56:25.966Z,10.14
2023-03-31T20:58:54.934Z,10.08
2023-03-31T21:01:22.180Z,10.16
2023-03-31T21:03:50.024Z,10.14
2023-03-31T21:06:20.512Z,10.12
2023-03-31T21:08:51.943Z,10.04
2023-03-31T21:11:19.132Z,10.09
2023-03-31T21:13:48.078Z,10.07
2023-03-31T21:16:16.206Z,10.12
2023-03-31T21:18:44.235Z,10.11
2023-03-31T21:21:14.152Z,10.12
2023-03-31T21:23:41.833Z,10.13
2023-03-31T21:26:11.362Z,10.14
2023-03-31T21:28:39.702Z,10.11
2023-03-31T21:31:10.977Z,10.08
2023-03-31T21:33:41.672Z,10.04
2023-03-31T21:36:17.883Z,10.07
2023-03-31T21:38:45.539Z,10.07
2023-03-31T21:41:15.833Z,10.05
2023-03-31T21:43:44.107Z,10.05
2023-03-31T21:46:20.212Z,10.09
2023-03-31T21:48:48.918Z,10.07
2023-03-31T21:51:17.723Z,9.99
2023-03-31T21:53:44.997Z,10.05
2023-03-31T21:56:12.329Z,10.03
2023-03-31T21:58:39.954Z,10.04
2023-03-31T22:01:08.387Z,10.04
2023-03-31T22:03:35.661Z,9.95
2023-03-31T22:06:06.824Z,10.02
2023-03-31T22:08:36.633Z,10.02
2023-03-31T22:11:05.736Z,10.02
2023-03-31T22:13:32.893Z,10.08
2023-03-31T22:16:01.812Z,10.04
2023-03-31T22:18:30.490Z,10.03
2023-03-31T22:20:57.967Z,10.07
2023-03-31T22:23:26.048Z,9.99
2023-03-31T22:25:53.089Z,9.97
2023-03-31T22:28:20.249Z,9.99
2023-03-31T22:30:47.643Z,9.94
2023-03-31T22:33:14.776Z,10.01
2023-03-31T22:35:41.924Z,9.91
2023-03-31T22:38:13.013Z,9.94
2023-03-31T22:40:41.311Z,9.90
2023-03-31T22:43:08.611Z,9.94
2023-03-31T22:45:37.848Z,9.95
2023-03-31T22:48:05.745Z,9.96
2023-03-31T22:50:32.879Z,9.93
2023-03-31T22:52:59.959Z,9.98
2023-03-31T22:55:27.255Z,10.01
2023-03-31T22:57:54.315Z,9.98
2023-03-31T23:00:21.375Z,9.96
2023-03-31T23:02:48.531Z,9.96
2023-03-31T23:05:15.793Z,9.94
2023-03-31T23:07:43.273Z,9.96
2023-03-31T23:10:11.302Z,9.97
2023-03-31T23:12:38.363Z,9.91
2023-03-31T23:15:05.624Z,9.97
2023-03-31T23:17:32.698Z,9.90
2023-03-31T23:19:59.867Z,9.98
2023-03-31T23:22:26.891Z,9.91
2023-03-31T23:24:53.924Z,9.98
2023-03-31T23:27:21.412Z,9.93
2023-03-31T23:29:48.449Z,9.91
2023-03-31T23:32:15.573Z,9.87
2023-03-31T23:34:43.512Z,9.84
2023-03-31T23:37:14.629Z,9.83
2023-03-31T23:39:41.922Z,9.86
2023-03-31T23:42:15.902Z,9.91
2023-03-31T23:44:43.240Z,9.87
2023-03-31T23:47:11.256Z,9.83
2023-03-31T23:49:38.251Z,9.92
2023-03-31T23:52:05.484Z,9.89
2023-03-31T23:54:32.713Z,9.92
2023-03-31T23:56:59.840Z,9.94
2023-03-31T23:59:26.891Z,9.90
